sensor_id;sensor_type;location;lat;lon;timestamp;pressure;altitude;pressure_sealevel;temperature;humidity
72685;BME280;61365;52.162;4.500;2022-10-17T00:00:39;101505.09;;;13.72;90.76
72685;BME280;61365;52.162;4.500;2022-10-17T00:03:05;101506.00;;;13.59;91.01
72685;BME280;61365;52.162;4.500;2022-10-17T00:05:32;101506.88;;;13.61;91.14
72685;BME280;61365;52.162;4.500;2022-10-17T00:07:58;101508.69;;;13.45;91.87
72685;BME280;61365;52.162;4.500;2022-10-17T00:10:25;101512.19;;;13.31;93.22
72685;BME280;61365;52.162;4.500;2022-10-17T00:12:51;101511.31;;;13.32;93.53
72685;BME280;61365;52.162;4.500;2022-10-17T00:15:19;101506.03;;;13.25;93.86
72685;BME280;61365;52.162;4.500;2022-10-17T00:17:45;101510.44;;;13.27;94.00
72685;BME280;61365;52.162;4.500;2022-10-17T00:20:12;101508.66;;;13.25;94.28
72685;BME280;61365;52.162;4.500;2022-10-17T00:22:39;101506.91;;;13.30;94.03
72685;BME280;61365;52.162;4.500;2022-10-17T00:25:07;101499.88;;;13.26;94.53
72685;BME280;61365;52.162;4.500;2022-10-17T00:27:37;101488.47;;;13.27;94.70
72685;BME280;61365;52.162;4.500;2022-10-17T00:30:09;101476.19;;;13.21;94.20
72685;BME280;61365;52.162;4.500;2022-10-17T00:32:37;101470.03;;;13.25;94.66
72685;BME280;61365;52.162;4.500;2022-10-17T00:35:05;101473.53;;;13.32;94.05
72685;BME280;61365;52.162;4.500;2022-10-17T00:37:32;101470.03;;;13.17;94.27
72685;BME280;61365;52.162;4.500;2022-10-17T00:39:59;101471.81;;;13.04;95.48
72685;BME280;61365;52.162;4.500;2022-10-17T00:42:26;101480.56;;;13.13;95.61
72685;BME280;61365;52.162;4.500;2022-10-17T00:47:45;101485.84;;;13.13;96.11
72685;BME280;61365;52.162;4.500;2022-10-17T00:50:15;101494.66;;;12.96;96.59
72685;BME280;61365;52.162;4.500;2022-10-17T00:52:42;101499.91;;;12.96;97.10
72685;BME280;61365;52.162;4.500;2022-10-17T00:55:15;101484.97;;;13.09;96.34
72685;BME280;61365;52.162;4.500;2022-10-17T00:57:45;101488.50;;;13.20;95.68
72685;BME280;61365;52.162;4.500;2022-10-17T01:00:13;101490.25;;;13.20;96.20
72685;BME280;61365;52.162;4.500;2022-10-17T01:02:41;101476.19;;;13.07;96.62
72685;BME280;61365;52.162;4.500;2022-10-17T01:05:08;101470.94;;;13.13;97.47
72685;BME280;61365;52.162;4.500;2022-10-17T01:07:36;101477.97;;;13.06;97.26
72685;BME280;61365;52.162;4.500;2022-10-17T01:10:05;101472.69;;;13.06;97.82
72685;BME280;61365;52.162;4.500;2022-10-17T01:13:00;101477.09;;;13.04;98.06
72685;BME280;61365;52.162;4.500;2022-10-17T01:32:12;101441.06;;;13.11;98.46
72685;BME280;61365;52.162;4.500;2022-10-17T01:37:47;101428.75;;;13.16;98.37
72685;BME280;61365;52.162;4.500;2022-10-17T01:40:33;101424.38;;;13.15;98.56
72685;BME280;61365;52.162;4.500;2022-10-17T01:43:20;101416.41;;;13.25;98.23
72685;BME280;61365;52.162;4.500;2022-10-17T01:46:15;101419.06;;;13.26;97.81
72685;BME280;61365;52.162;4.500;2022-10-17T01:48:52;101421.72;;;13.23;97.92
72685;BME280;61365;52.162;4.500;2022-10-17T01:51:30;101408.53;;;13.23;98.46
72685;BME280;61365;52.162;4.500;2022-10-17T01:54:52;101421.69;;;13.28;98.26
72685;BME280;61365;52.162;4.500;2022-10-17T01:57:05;101426.09;;;13.30;97.91
72685;BME280;61365;52.162;4.500;2022-10-17T01:59:43;101420.81;;;13.32;98.28
72685;BME280;61365;52.162;4.500;2022-10-17T02:02:13;101423.44;;;13.29;98.18
72685;BME280;61365;52.162;4.500;2022-10-17T02:04:42;101418.19;;;13.30;98.13
72685;BME280;61365;52.162;4.500;2022-10-17T02:07:12;101403.25;;;13.26;98.26
72685;BME280;61365;52.162;4.500;2022-10-17T02:09:39;101409.38;;;13.36;98.08
72685;BME280;61365;52.162;4.500;2022-10-17T02:12:39;101402.38;;;13.33;97.76
72685;BME280;61365;52.162;4.500;2022-10-17T02:15:49;101408.50;;;13.37;97.54
72685;BME280;61365;52.162;4.500;2022-10-17T02:18:51;101403.25;;;13.35;98.00
72685;BME280;61365;52.162;4.500;2022-10-17T02:27:46;101382.16;;;13.26;98.78
72685;BME280;61365;52.162;4.500;2022-10-17T02:30:39;101381.28;;;13.30;98.75
72685;BME280;61365;52.162;4.500;2022-10-17T02:33:15;101380.41;;;13.28;98.77
72685;BME280;61365;52.162;4.500;2022-10-17T02:36:06;101377.75;;;13.27;98.58
72685;BME280;61365;52.162;4.500;2022-10-17T02:38:37;101383.03;;;13.30;98.63
72685;BME280;61365;52.162;4.500;2022-10-17T02:41:10;101379.53;;;13.25;99.07
72685;BME280;61365;52.162;4.500;2022-10-17T02:43:41;101384.81;;;13.23;99.37
72685;BME280;61365;52.162;4.500;2022-10-17T02:46:15;101383.94;;;13.24;99.77
72685;BME280;61365;52.162;4.500;2022-10-17T02:48:54;101387.44;;;13.25;99.34
72685;BME280;61365;52.162;4.500;2022-10-17T02:55:08;101401.50;;;13.25;99.75
72685;BME280;61365;52.162;4.500;2022-10-17T02:57:45;101413.81;;;13.17;99.79
72685;BME280;61365;52.162;4.500;2022-10-17T03:00:17;101411.19;;;13.18;100.00
72685;BME280;61365;52.162;4.500;2022-10-17T03:02:47;101415.56;;;13.18;99.92
72685;BME280;61365;52.162;4.500;2022-10-17T03:05:23;101420.84;;;13.16;100.00
72685;BME280;61365;52.162;4.500;2022-10-17T03:07:51;101424.38;;;13.21;99.84
72685;BME280;61365;52.162;4.500;2022-10-17T03:10:19;101424.38;;;13.21;100.00
72685;BME280;61365;52.162;4.500;2022-10-17T03:12:46;101417.31;;;13.25;100.00
72685;BME280;61365;52.162;4.500;2022-10-17T03:15:14;101411.16;;;13.28;99.87
72685;BME280;61365;52.162;4.500;2022-10-17T03:17:40;101404.13;;;13.31;99.82
72685;BME280;61365;52.162;4.500;2022-10-17T03:20:06;101401.47;;;13.33;99.57
72685;BME280;61365;52.162;4.500;2022-10-17T03:22:33;101405.88;;;13.29;100.00
72685;BME280;61365;52.162;4.500;2022-10-17T03:24:59;101399.75;;;13.30;100.00
72685;BME280;61365;52.162;4.500;2022-10-17T03:27:26;101411.16;;;13.29;100.00
72685;BME280;61365;52.162;4.500;2022-10-17T03:29:52;101409.38;;;13.48;100.00
72685;BME280;61365;52.162;4.500;2022-10-17T03:32:18;101418.16;;;13.43;100.00
72685;BME280;61365;52.162;4.500;2022-10-17T03:34:44;101421.66;;;13.39;100.00
72685;BME280;61365;52.162;4.500;2022-10-17T03:37:11;101406.72;;;13.50;100.00
72685;BME280;61365;52.162;4.500;2022-10-17T03:39:37;101400.56;;;13.40;100.00
72685;BME280;61365;52.162;4.500;2022-10-17T03:42:03;101404.97;;;13.49;100.00
72685;BME280;61365;52.162;4.500;2022-10-17T03:44:29;101423.41;;;13.52;100.00
72685;BME280;61365;52.162;4.500;2022-10-17T03:46:56;101407.59;;;13.49;100.00
72685;BME280;61365;52.162;4.500;2022-10-17T03:49:22;101415.50;;;13.52;100.00
72685;BME280;61365;52.162;4.500;2022-10-17T03:51:49;101412.00;;;13.48;100.00
72685;BME280;61365;52.162;4.500;2022-10-17T03:54:15;101414.59;;;13.51;100.00
72685;BME280;61365;52.162;4.500;2022-10-17T03:56:41;101411.09;;;13.49;100.00
72685;BME280;61365;52.162;4.500;2022-10-17T03:59:12;101411.97;;;13.55;100.00
72685;BME280;61365;52.162;4.500;2022-10-17T04:01:40;101414.59;;;13.55;100.00
72685;BME280;61365;52.162;4.500;2022-10-17T04:04:07;101417.25;;;13.59;100.00
72685;BME280;61365;52.162;4.500;2022-10-17T04:06:34;101420.75;;;13.55;100.00
72685;BME280;61365;52.162;4.500;2022-10-17T04:09:02;101423.38;;;13.61;100.00
72685;BME280;61365;52.162;4.500;2022-10-17T04:11:29;101420.72;;;13.63;100.00
72685;BME280;61365;52.162;4.500;2022-10-17T04:13:57;101433.06;;;13.59;100.00
72685;BME280;61365;52.162;4.500;2022-10-17T04:16:24;101433.03;;;13.61;100.00
72685;BME280;61365;52.162;4.500;2022-10-17T04:18:55;101426.88;;;13.62;100.00
72685;BME280;61365;52.162;4.500;2022-10-17T04:21:27;101429.53;;;13.60;100.00
72685;BME280;61365;52.162;4.500;2022-10-17T04:23:59;101425.97;;;13.64;100.00
72685;BME280;61365;52.162;4.500;2022-10-17T04:26:25;101431.22;;;13.74;100.00
72685;BME280;61365;52.162;4.500;2022-10-17T04:28:52;101439.13;;;13.74;100.00
72685;BME280;61365;52.162;4.500;2022-10-17T04:31:18;101432.97;;;13.78;100.00
72685;BME280;61365;52.162;4.500;2022-10-17T04:33:46;101441.75;;;13.83;100.00
72685;BME280;61365;52.162;4.500;2022-10-17T04:36:16;101456.66;;;13.87;100.00
72685;BME280;61365;52.162;4.500;2022-10-17T04:38:44;101462.78;;;13.92;100.00
72685;BME280;61365;52.162;4.500;2022-10-17T04:41:13;101448.72;;;13.95;100.00
72685;BME280;61365;52.162;4.500;2022-10-17T04:43:42;101445.13;;;14.05;100.00
72685;BME280;61365;52.162;4.500;2022-10-17T04:46:10;101445.13;;;14.07;100.00
72685;BME280;61365;52.162;4.500;2022-10-17T04:48:39;101451.28;;;14.12;100.00
72685;BME280;61365;52.162;4.500;2022-10-17T04:51:12;101445.97;;;14.14;100.00
72685;BME280;61365;52.162;4.500;2022-10-17T04:53:40;101438.00;;;14.18;100.00
72685;BME280;61365;52.162;4.500;2022-10-17T04:58:40;101455.50;;;14.33;100.00
72685;BME280;61365;52.162;4.500;2022-10-17T05:01:10;101447.59;;;14.35;100.00
72685;BME280;61365;52.162;4.500;2022-10-17T05:03:39;101445.88;;;14.31;100.00
72685;BME280;61365;52.162;4.500;2022-10-17T05:06:08;101444.06;;;14.36;100.00
72685;BME280;61365;52.162;4.500;2022-10-17T05:08:37;101439.69;;;14.33;100.00
72685;BME280;61365;52.162;4.500;2022-10-17T05:11:04;101441.38;;;14.42;100.00
72685;BME280;61365;52.162;4.500;2022-10-17T05:13:39;101445.75;;;14.46;100.00
72685;BME280;61365;52.162;4.500;2022-10-17T05:16:06;101458.88;;;14.54;100.00
72685;BME280;61365;52.162;4.500;2022-10-17T05:18:32;101477.38;;;14.55;100.00
72685;BME280;61365;52.162;4.500;2022-10-17T05:20:58;101486.16;;;14.61;100.00
72685;BME280;61365;52.162;4.500;2022-10-17T05:23:25;101488.78;;;14.59;100.00
72685;BME280;61365;52.162;4.500;2022-10-17T05:25:54;101495.78;;;14.69;100.00
72685;BME280;61365;52.162;4.500;2022-10-17T05:28:21;101492.19;;;14.81;99.44
72685;BME280;61365;52.162;4.500;2022-10-17T05:30:48;101492.19;;;14.78;99.32
72685;BME280;61365;52.162;4.500;2022-10-17T05:33:15;101484.25;;;14.81;99.47
72685;BME280;61365;52.162;4.500;2022-10-17T05:35:41;101481.63;;;14.81;99.49
72685;BME280;61365;52.162;4.500;2022-10-17T05:38:07;101484.16;;;14.91;99.36
72685;BME280;61365;52.162;4.500;2022-10-17T05:40:34;101490.31;;;14.94;98.47
72685;BME280;61365;52.162;4.500;2022-10-17T05:43:00;101492.97;;;14.90;98.58
72685;BME280;61365;52.162;4.500;2022-10-17T05:45:26;101492.09;;;14.89;98.63
72685;BME280;61365;52.162;4.500;2022-10-17T05:47:53;101481.56;;;14.88;98.70
72685;BME280;61365;52.162;4.500;2022-10-17T05:50:19;101473.66;;;14.84;98.76
72685;BME280;61365;52.162;4.500;2022-10-17T05:52:46;101484.25;;;14.81;98.83
72685;BME280;61365;52.162;4.500;2022-10-17T05:55:13;101483.44;;;14.75;99.06
72685;BME280;61365;52.162;4.500;2022-10-17T05:57:39;101487.81;;;14.77;99.23
72685;BME280;61365;52.162;4.500;2022-10-17T06:00:06;101481.66;;;14.75;99.26
72685;BME280;61365;52.162;4.500;2022-10-17T06:02:33;101482.50;;;14.76;99.43
72685;BME280;61365;52.162;4.500;2022-10-17T06:04:59;101475.50;;;14.75;99.57
72685;BME280;61365;52.162;4.500;2022-10-17T06:07:25;101481.69;;;14.74;99.52
72685;BME280;61365;52.162;4.500;2022-10-17T06:09:52;101494.00;;;14.73;99.57
72685;BME280;61365;52.162;4.500;2022-10-17T06:12:18;101495.78;;;14.69;99.70
72685;BME280;61365;52.162;4.500;2022-10-17T06:14:44;101495.75;;;14.68;99.83
72685;BME280;61365;52.162;4.500;2022-10-17T06:17:11;101514.25;;;14.65;100.00
72685;BME280;61365;52.162;4.500;2022-10-17T06:19:37;101516.88;;;14.68;100.00
72685;BME280;61365;52.162;4.500;2022-10-17T06:22:06;101514.25;;;14.68;100.00
72685;BME280;61365;52.162;4.500;2022-10-17T06:24:32;101517.78;;;14.67;100.00
72685;BME280;61365;52.162;4.500;2022-10-17T06:26:59;101523.94;;;14.74;100.00
72685;BME280;61365;52.162;4.500;2022-10-17T06:29:25;101515.97;;;14.78;100.00
72685;BME280;61365;52.162;4.500;2022-10-17T06:31:51;101519.50;;;14.77;99.94
72685;BME280;61365;52.162;4.500;2022-10-17T06:34:18;101511.56;;;14.79;100.00
72685;BME280;61365;52.162;4.500;2022-10-17T06:36:45;101510.75;;;14.74;100.00
72685;BME280;61365;52.162;4.500;2022-10-17T06:39:11;101523.88;;;14.80;100.00
72685;BME280;61365;52.162;4.500;2022-10-17T06:41:38;101532.66;;;14.86;99.81
